sensor_id;sensor_type;location;lat;lon;timestamp;temperature;humidity
52285;DHT22;38238;53.304;6.606;2022-09-23T00:00:46;11.40;99.90
52285;DHT22;38238;53.304;6.606;2022-09-23T00:03:13;11.40;99.90
52285;DHT22;38238;53.304;6.606;2022-09-23T00:05:39;11.30;99.90
52285;DHT22;38238;53.304;6.606;2022-09-23T00:08:09;11.40;99.90
52285;DHT22;38238;53.304;6.606;2022-09-23T00:10:37;11.40;99.90
52285;DHT22;38238;53.304;6.606;2022-09-23T00:13:04;11.30;99.90
52285;DHT22;38238;53.304;6.606;2022-09-23T00:15:30;11.30;99.90
52285;DHT22;38238;53.304;6.606;2022-09-23T00:17:58;11.30;99.90
52285;DHT22;38238;53.304;6.606;2022-09-23T00:20:24;11.30;99.90
52285;DHT22;38238;53.304;6.606;2022-09-23T00:22:50;11.30;99.90
52285;DHT22;38238;53.304;6.606;2022-09-23T00:25:16;11.30;99.90
52285;DHT22;38238;53.304;6.606;2022-09-23T00:27:41;11.30;99.90
52285;DHT22;38238;53.304;6.606;2022-09-23T00:30:08;11.20;99.90
52285;DHT22;38238;53.304;6.606;2022-09-23T00:32:34;11.30;99.90
52285;DHT22;38238;53.304;6.606;2022-09-23T00:35:01;11.20;99.90
52285;DHT22;38238;53.304;6.606;2022-09-23T00:37:28;11.20;99.90
52285;DHT22;38238;53.304;6.606;2022-09-23T00:39:54;11.20;99.90
52285;DHT22;38238;53.304;6.606;2022-09-23T00:42:22;11.20;99.90
52285;DHT22;38238;53.304;6.606;2022-09-23T00:44:54;11.20;99.90
52285;DHT22;38238;53.304;6.606;2022-09-23T00:50:37;11.00;99.90
52285;DHT22;38238;53.304;6.606;2022-09-23T00:53:11;11.00;99.90
52285;DHT22;38238;53.304;6.606;2022-09-23T00:55:42;11.00;99.90
52285;DHT22;38238;53.304;6.606;2022-09-23T00:58:13;11.00;99.90
52285;DHT22;38238;53.304;6.606;2022-09-23T01:00:40;11.00;99.90
52285;DHT22;38238;53.304;6.606;2022-09-23T01:03:06;11.00;99.90
52285;DHT22;38238;53.304;6.606;2022-09-23T01:05:33;11.00;99.90
52285;DHT22;38238;53.304;6.606;2022-09-23T01:08:02;10.90;99.90
52285;DHT22;38238;53.304;6.606;2022-09-23T01:21:21;10.90;99.90
52285;DHT22;38238;53.304;6.606;2022-09-23T01:26:55;10.80;99.90
52285;DHT22;38238;53.304;6.606;2022-09-23T01:34:51;10.80;99.90
52285;DHT22;38238;53.304;6.606;2022-09-23T01:37:31;10.70;99.90
52285;DHT22;38238;53.304;6.606;2022-09-23T01:43:09;10.70;99.90
52285;DHT22;38238;53.304;6.606;2022-09-23T01:45:41;10.80;99.90
52285;DHT22;38238;53.304;6.606;2022-09-23T01:48:18;10.80;99.90
52285;DHT22;38238;53.304;6.606;2022-09-23T01:50:59;10.80;99.90
52285;DHT22;38238;53.304;6.606;2022-09-23T01:56:21;10.80;99.90
52285;DHT22;38238;53.304;6.606;2022-09-23T02:04:15;10.80;99.90
52285;DHT22;38238;53.304;6.606;2022-09-23T02:06:50;10.80;99.90
52285;DHT22;38238;53.304;6.606;2022-09-23T02:09:23;10.70;99.90
52285;DHT22;38238;53.304;6.606;2022-09-23T02:11:51;10.70;99.90
52285;DHT22;38238;53.304;6.606;2022-09-23T02:14:24;10.70;99.90
52285;DHT22;38238;53.304;6.606;2022-09-23T02:16:55;10.70;99.90
52285;DHT22;38238;53.304;6.606;2022-09-23T02:19:37;10.60;99.90
52285;DHT22;38238;53.304;6.606;2022-09-23T02:22:26;10.60;99.90
52285;DHT22;38238;53.304;6.606;2022-09-23T02:24:53;10.60;99.90
52285;DHT22;38238;53.304;6.606;2022-09-23T02:27:30;10.60;99.90
52285;DHT22;38238;53.304;6.606;2022-09-23T02:30:13;10.50;99.90
52285;DHT22;38238;53.304;6.606;2022-09-23T02:35:38;10.50;99.90
52285;DHT22;38238;53.304;6.606;2022-09-23T02:38:33;10.40;99.90
52285;DHT22;38238;53.304;6.606;2022-09-23T02:41:14;10.40;99.90
52285;DHT22;38238;53.304;6.606;2022-09-23T02:46:10;10.40;99.90
52285;DHT22;38238;53.304;6.606;2022-09-23T02:48:59;10.30;99.90
52285;DHT22;38238;53.304;6.606;2022-09-23T02:51:29;10.30;99.90
52285;DHT22;38238;53.304;6.606;2022-09-23T02:53:59;10.30;99.90
52285;DHT22;38238;53.304;6.606;2022-09-23T02:56:27;10.20;99.90
52285;DHT22;38238;53.304;6.606;2022-09-23T02:58:54;10.20;99.90
52285;DHT22;38238;53.304;6.606;2022-09-23T03:07:12;10.20;99.90
52285;DHT22;38238;53.304;6.606;2022-09-23T03:13:03;10.10;99.90
52285;DHT22;38238;53.304;6.606;2022-09-23T03:24:20;10.00;99.90
52285;DHT22;38238;53.304;6.606;2022-09-23T03:26:48;10.00;99.90
52285;DHT22;38238;53.304;6.606;2022-09-23T03:29:15;10.00;99.90
52285;DHT22;38238;53.304;6.606;2022-09-23T03:31:42;10.10;99.90
52285;DHT22;38238;53.304;6.606;2022-09-23T03:34:17;10.00;99.90
52285;DHT22;38238;53.304;6.606;2022-09-23T03:37:15;10.00;99.90
52285;DHT22;38238;53.304;6.606;2022-09-23T03:42:32;9.90;99.90
52285;DHT22;38238;53.304;6.606;2022-09-23T03:44:58;9.90;99.90
52285;DHT22;38238;53.304;6.606;2022-09-23T03:47:27;9.90;99.90
52285;DHT22;38238;53.304;6.606;2022-09-23T03:49:53;9.90;99.90
52285;DHT22;38238;53.304;6.606;2022-09-23T03:52:23;9.80;99.90
52285;DHT22;38238;53.304;6.606;2022-09-23T03:54:50;9.80;99.90
52285;DHT22;38238;53.304;6.606;2022-09-23T03:57:17;9.70;99.90
52285;DHT22;38238;53.304;6.606;2022-09-23T03:59:43;9.70;99.90
52285;DHT22;38238;53.304;6.606;2022-09-23T04:02:09;9.70;99.90
52285;DHT22;38238;53.304;6.606;2022-09-23T04:04:37;9.70;99.90
52285;DHT22;38238;53.304;6.606;2022-09-23T04:07:04;9.70;99.90
52285;DHT22;38238;53.304;6.606;2022-09-23T04:09:31;9.60;99.90
52285;DHT22;38238;53.304;6.606;2022-09-23T04:11:56;9.60;99.90
52285;DHT22;38238;53.304;6.606;2022-09-23T04:14:23;9.60;99.90
52285;DHT22;38238;53.304;6.606;2022-09-23T04:16:49;9.60;99.90
52285;DHT22;38238;53.304;6.606;2022-09-23T04:19:15;9.60;99.90
52285;DHT22;38238;53.304;6.606;2022-09-23T04:21:42;9.60;99.90
52285;DHT22;38238;53.304;6.606;2022-09-23T04:24:10;10.10;99.90
52285;DHT22;38238;53.304;6.606;2022-09-23T04:26:36;9.50;99.90
52285;DHT22;38238;53.304;6.606;2022-09-23T04:29:03;9.50;99.90
52285;DHT22;38238;53.304;6.606;2022-09-23T04:31:33;9.50;99.90
52285;DHT22;38238;53.304;6.606;2022-09-23T04:33:59;9.50;99.90
52285;DHT22;38238;53.304;6.606;2022-09-23T04:36:25;9.50;99.90
52285;DHT22;38238;53.304;6.606;2022-09-23T04:38:52;9.50;99.90
52285;DHT22;38238;53.304;6.606;2022-09-23T04:41:18;9.60;99.90
52285;DHT22;38238;53.304;6.606;2022-09-23T04:43:44;9.50;99.90
52285;DHT22;38238;53.304;6.606;2022-09-23T04:46:12;10.00;99.90
52285;DHT22;38238;53.304;6.606;2022-09-23T04:48:39;9.50;99.90
52285;DHT22;38238;53.304;6.606;2022-09-23T04:51:14;9.50;99.90
52285;DHT22;38238;53.304;6.606;2022-09-23T04:53:43;9.40;99.90
52285;DHT22;38238;53.304;6.606;2022-09-23T04:56:15;9.40;99.90
52285;DHT22;38238;53.304;6.606;2022-09-23T04:58:41;9.40;99.90
52285;DHT22;38238;53.304;6.606;2022-09-23T05:03:44;9.40;99.90
52285;DHT22;38238;53.304;6.606;2022-09-23T05:06:11;9.40;99.90
52285;DHT22;38238;53.304;6.606;2022-09-23T05:08:39;9.40;99.90
52285;DHT22;38238;53.304;6.606;2022-09-23T05:11:05;9.40;99.90
52285;DHT22;38238;53.304;6.606;2022-09-23T05:13:32;9.40;99.90
52285;DHT22;38238;53.304;6.606;2022-09-23T05:15:59;9.40;99.90
52285;DHT22;38238;53.304;6.606;2022-09-23T05:18:35;9.40;99.90
52285;DHT22;38238;53.304;6.606;2022-09-23T05:21:01;10.10;99.90
52285;DHT22;38238;53.304;6.606;2022-09-23T05:23:27;9.40;99.90
52285;DHT22;38238;53.304;6.606;2022-09-23T05:25:58;9.40;99.90
52285;DHT22;38238;53.304;6.606;2022-09-23T05:28:26;9.40;99.90
52285;DHT22;38238;53.304;6.606;2022-09-23T05:31:01;9.70;99.90
52285;DHT22;38238;53.304;6.606;2022-09-23T05:33:27;9.30;99.90
52285;DHT22;38238;53.304;6.606;2022-09-23T05:35:54;9.30;99.90
52285;DHT22;38238;53.304;6.606;2022-09-23T05:38:20;9.30;99.90
52285;DHT22;38238;53.304;6.606;2022-09-23T05:40:45;9.30;99.90
52285;DHT22;38238;53.304;6.606;2022-09-23T05:43:11;9.90;99.90
52285;DHT22;38238;53.304;6.606;2022-09-23T05:45:36;9.30;99.90
52285;DHT22;38238;53.304;6.606;2022-09-23T05:48:02;9.30;99.90
52285;DHT22;38238;53.304;6.606;2022-09-23T05:50:28;9.30;99.90
52285;DHT22;38238;53.304;6.606;2022-09-23T05:52:54;9.40;99.90
52285;DHT22;38238;53.304;6.606;2022-09-23T05:55:19;9.40;99.90
52285;DHT22;38238;53.304;6.606;2022-09-23T05:57:45;9.40;99.90
52285;DHT22;38238;53.304;6.606;2022-09-23T06:00:11;9.40;99.90
52285;DHT22;38238;53.304;6.606;2022-09-23T06:02:37;9.50;99.90
52285;DHT22;38238;53.304;6.606;2022-09-23T06:05:03;9.50;99.90
52285;DHT22;38238;53.304;6.606;2022-09-23T06:07:28;9.50;99.90
52285;DHT22;38238;53.304;6.606;2022-09-23T06:09:57;9.50;99.90
52285;DHT22;38238;53.304;6.606;2022-09-23T06:12:22;9.50;99.90
52285;DHT22;38238;53.304;6.606;2022-09-23T06:14:49;9.60;99.90
52285;DHT22;38238;53.304;6.606;2022-09-23T06:17:15;9.60;99.90
52285;DHT22;38238;53.304;6.606;2022-09-23T06:19:40;9.70;99.90
52285;DHT22;38238;53.304;6.606;2022-09-23T06:22:06;9.70;99.90
52285;DHT22;38238;53.304;6.606;2022-09-23T06:24:32;9.70;99.90
52285;DHT22;38238;53.304;6.606;2022-09-23T06:26:57;9.70;99.90
52285;DHT22;38238;53.304;6.606;2022-09-23T06:29:23;9.80;99.90
52285;DHT22;38238;53.304;6.606;2022-09-23T06:31:49;9.80;99.90
52285;DHT22;38238;53.304;6.606;2022-09-23T06:34:15;9.80;99.90
52285;DHT22;38238;53.304;6.606;2022-09-23T06:36:42;9.80;99.90
52285;DHT22;38238;53.304;6.606;2022-09-23T06:39:07;9.90;99.90
52285;DHT22;38238;53.304;6.606;2022-09-23T06:41:33;9.90;99.90
52285;DHT22;38238;53.304;6.606;2022-09-23T06:43:59;9.90;99.90
52285;DHT22;38238;53.304;6.606;2022-09-23T06:46:25;10.00;99.90
52285;DHT22;38238;53.304;6.606;2022-09-23T06:48:50;10.00;99.90
52285;DHT22;38238;53.304;6.606;2022-09-23T06:51:16;10.10;99.90
52285;DHT22;38238;53.304;6.606;2022-09-23T06:53:47;10.20;99.90
52285;DHT22;38238;53.304;6.606;2022-09-23T06:56:14;10.20;99.90
52285;DHT22;38238;53.304;6.606;2022-09-23T06:58:41;10.30;99.90
52285;DHT22;38238;53.304;6.606;2022-09-23T07:01:10;10.40;99.90
52285;DHT22;38238;53.304;6.606;2022-09-23T07:03:36;10.40;99.90
52285;DHT22;38238;53.304;6.606;2022-09-23T07:06:02;10.50;99.90
52285;DHT22;38238;53.304;6.606;2022-09-23T07:08:30;10.60;99.90
52285;DHT22;38238;53.304;6.606;2022-09-23T07:10:57;10.60;99.90
52285;DHT22;38238;53.304;6.606;2022-09-23T07:13:24;11.30;99.90
52285;DHT22;38238;53.304;6.606;2022-09-23T07:15:55;10.70;99.90
52285;DHT22;38238;53.304;6.606;2022-09-23T07:18:24;10.80;99.90
52285;DHT22;38238;53.304;6.606;2022-09-23T07:20:51;10.80;99.90
52285;DHT22;38238;53.304;6.606;2022-09-23T07:23:17;10.90;99.90
52285;DHT22;38238;53.304;6.606;2022-09-23T07:25:44;10.90;99.90
52285;DHT22;38238;53.304;6.606;2022-09-23T07:28:11;11.00;99.90
52285;DHT22;38238;53.304;6.606;2022-09-23T07:30:38;11.00;99.90
52285;DHT22;38238;53.304;6.606;2022-09-23T07:33:05;11.00;99.90
52285;DHT22;38238;53.304;6.606;2022-09-23T07:35:32;11.00;99.90
52285;DHT22;38238;53.304;6.606;2022-09-23T07:37:58;11.10;99.90
52285;DHT22;38238;53.304;6.606;2022-09-23T07:40:24;11.10;99.90
52285;DHT22;38238;53.304;6.606;2022-09-23T07:42:50;11.10;99.90
52285;DHT22;38238;53.304;6.606;2022-09-23T07:45:15;11.10;99.90
52285;DHT22;38238;53.304;6.606;2022-09-23T07:47:41;11.20;99.90
52285;DHT22;38238;53.304;6.606;2022-09-23T07:50:08;11.30;99.90
52285;DHT22;38238;53.304;6.606;2022-09-23T07:52:37;11.40;99.90
52285;DHT22;38238;53.304;6.606;2022-09-23T07:55:04;11.50;99.90
52285;DHT22;38238;53.304;6.606;2022-09-23T07:57:31;11.50;99.90
52285;DHT22;38238;53.304;6.606;2022-09-23T07:59:57;11.60;99.90
52285;DHT22;38238;53.304;6.606;2022-09-23T08:02:23;11.60;99.90
52285;DHT22;38238;53.304;6.606;2022-09-23T08:04:49;11.70;99.90
52285;DHT22;38238;53.304;6.606;2022-09-23T08:07:15;11.70;99.90
52285;DHT22;38238;53.304;6.606;2022-09-23T08:09:42;11.80;99.90
52285;DHT22;38238;53.304;6.606;2022-09-23T08:12:14;11.80;99.90
52285;DHT22;38238;53.304;6.606;2022-09-23T08:14:40;11.80;99.90
52285;DHT22;38238;53.304;6.606;2022-09-23T08:17:06;11.80;99.90
52285;DHT22;38238;53.304;6.606;2022-09-23T08:19:32;11.80;99.90
52285;DHT22;38238;53.304;6.606;2022-09-23T08:21:58;11.80;99.90
52285;DHT22;38238;53.304;6.606;2022-09-23T08:24:24;11.80;99.90
52285;DHT22;38238;53.304;6.606;2022-09-23T08:26:51;11.80;99.90
52285;DHT22;38238;53.304;6.606;2022-09-23T08:29:22;11.90;99.90
52285;DHT22;38238;53.304;6.606;2022-09-23T08:31:48;11.90;99.90
52285;DHT22;38238;53.304;6.606;2022-09-23T08:34:16;11.90;99.90
52285;DHT22;38238;53.304;6.606;2022-09-23T08:36:42;12.00;99.90
52285;DHT22;38238;53.304;6.606;2022-09-23T08:39:12;12.10;99.90
52285;DHT22;38238;53.304;6.606;2022-09-23T08:42:31;12.30;99.90
52285;DHT22;38238;53.304;6.606;2022-09-23T08:44:55;12.30;99.90
52285;DHT22;38238;53.304;6.606;2022-09-23T08:47:27;12.40;99.90
52285;DHT22;38238;53.304;6.606;2022-09-23T08:50:17;12.60;99.90
52285;DHT22;38238;53.304;6.606;2022-09-23T08:52:51;12.70;99.90
52285;DHT22;38238;53.304;6.606;2022-09-23T08:56:04;12.90;99.90
52285;DHT22;38238;53.304;6.606;2022-09-23T09:03:56;13.10;99.90
52285;DHT22;38238;53.304;6.606;2022-09-23T09:06:35;13.20;99.90
52285;DHT22;38238;53.304;6.606;2022-09-23T09:09:10;13.20;99.90
52285;DHT22;38238;53.304;6.606;2022-09-23T09:11:41;13.30;99.90
52285;DHT22;38238;53.304;6.606;2022-09-23T09:14:28;13.40;99.90
52285;DHT22;38238;53.304;6.606;2022-09-23T09:17:04;13.60;99.90
52285;DHT22;38238;53.304;6.606;2022-09-23T09:22:55;13.70;99.90
52285;DHT22;38238;53.304;6.606;2022-09-23T09:25:44;13.80;99.90
52285;DHT22;38238;53.304;6.606;2022-09-23T09:30:39;14.00;99.90
52285;DHT22;38238;53.304;6.606;2022-09-23T09:33:13;14.10;99.90
52285;DHT22;38238;53.304;6.606;2022-09-23T09:36:04;14.20;99.90
52285;DHT22;38238;53.304;6.606;2022-09-23T09:38:34;14.30;99.90
52285;DHT22;38238;53.304;6.606;2022-09-23T09:41:10;14.40;99.90
52285;DHT22;38238;53.304;6.606;2022-09-23T09:43:39;14.50;99.90
52285;DHT22;38238;53.304;6.606;2022-09-23T09:52:23;14.70;99.90
52285;DHT22;38238;53.304;6.606;2022-09-23T09:54:50;14.80;99.90
52285;DHT22;38238;53.304;6.606;2022-09-23T09:57:32;14.80;99.90
52285;DHT22;38238;53.304;6.606;2022-09-23T10:13:39;15.10;99.90
52285;DHT22;38238;53.304;6.606;2022-09-23T10:16:05;15.10;99.90
52285;DHT22;38238;53.304;6.606;2022-09-23T10:18:46;15.20;99.90
52285;DHT22;38238;53.304;6.606;2022-09-23T10:21:19;15.30;99.90
52285;DHT22;38238;53.304;6.606;2022-09-23T10:23:56;15.30;99.90
52285;DHT22;38238;53.304;6.606;2022-09-23T10:26:32;15.30;99.90
52285;DHT22;38238;53.304;6.606;2022-09-23T10:29:23;15.30;99.90
52285;DHT22;38238;53.304;6.606;2022-09-23T10:31:47;15.30;99.90
52285;DHT22;38238;53.304;6.606;2022-09-23T10:34:26;15.30;99.90
52285;DHT22;38238;53.304;6.606;2022-09-23T10:37:02;15.30;99.90
52285;DHT22;38238;53.304;6.606;2022-09-23T10:39:31;15.30;99.90
52285;DHT22;38238;53.304;6.606;2022-09-23T10:42:34;15.40;99.90
52285;DHT22;38238;53.304;6.606;2022-09-23T10:45:26;15.40;99.90
52285;DHT22;38238;53.304;6.606;2022-09-23T10:56:40;15.70;99.90
52285;DHT22;38238;53.304;6.606;2022-09-23T10:59:26;15.70;99.90
52285;DHT22;38238;53.304;6.606;2022-09-23T11:04:55;15.90;99.90
52285;DHT22;38238;53.304;6.606;2022-09-23T11:10:27;16.00;99.90
52285;DHT22;38238;53.304;6.606;2022-09-23T11:15:49;16.00;99.90
52285;DHT22;38238;53.304;6.606;2022-09-23T11:19:02;16.10;99.90
52285;DHT22;38238;53.304;6.606;2022-09-23T11:30:00;16.10;99.90
52285;DHT22;38238;53.304;6.606;2022-09-23T11:35:24;16.10;99.90
52285;DHT22;38238;53.304;6.606;2022-09-23T11:38:19;16.00;99.90
52285;DHT22;38238;53.304;6.606;2022-09-23T11:40:51;16.10;99.90
52285;DHT22;38238;53.304;6.606;2022-09-23T11:43:26;16.10;99.90
52285;DHT22;38238;53.304;6.606;2022-09-23T11:48:41;16.10;99.90
52285;DHT22;38238;53.304;6.606;2022-09-23T11:51:13;16.10;99.90
52285;DHT22;38238;53.304;6.606;2022-09-23T11:53:59;16.10;99.90
52285;DHT22;38238;53.304;6.606;2022-09-23T11:56:50;16.10;99.90
52285;DHT22;38238;53.304;6.606;2022-09-23T11:59:41;16.10;99.90
52285;DHT22;38238;53.304;6.606;2022-09-23T12:02:23;16.20;99.90
52285;DHT22;38238;53.304;6.606;2022-09-23T12:05:02;16.20;99.90
52285;DHT22;38238;53.304;6.606;2022-09-23T12:08:00;16.10;99.90
52285;DHT22;38238;53.304;6.606;2022-09-23T12:13:33;16.10;99.90
52285;DHT22;38238;53.304;6.606;2022-09-23T12:19:02;16.20;99.90
52285;DHT22;38238;53.304;6.606;2022-09-23T12:27:17;16.20;99.90
52285;DHT22;38238;53.304;6.606;2022-09-23T12:29:52;16.20;99.90
52285;DHT22;38238;53.304;6.606;2022-09-23T12:32:19;16.20;99.90
52285;DHT22;38238;53.304;6.606;2022-09-23T12:34:47;16.20;99.90
52285;DHT22;38238;53.304;6.606;2022-09-23T12:37:26;16.30;99.90
52285;DHT22;38238;53.304;6.606;2022-09-23T12:39:53;16.30;99.90
52285;DHT22;38238;53.304;6.606;2022-09-23T12:42:22;16.30;99.90
52285;DHT22;38238;53.304;6.606;2022-09-23T12:44:48;16.30;99.90
52285;DHT22;38238;53.304;6.606;2022-09-23T12:49:49;16.40;99.90
52285;DHT22;38238;53.304;6.606;2022-09-23T12:54:44;16.40;99.90
52285;DHT22;38238;53.304;6.606;2022-09-23T13:00:38;16.50;99.90
52285;DHT22;38238;53.304;6.606;2022-09-23T13:05:52;16.60;99.90
52285;DHT22;38238;53.304;6.606;2022-09-23T13:08:38;16.60;99.90
52285;DHT22;38238;53.304;6.606;2022-09-23T13:11:13;16.80;99.90
52285;DHT22;38238;53.304;6.606;2022-09-23T13:13:43;16.80;99.90
52285;DHT22;38238;53.304;6.606;2022-09-23T13:26:56;16.70;99.90
52285;DHT22;38238;53.304;6.606;2022-09-23T13:32:02;16.70;99.90
52285;DHT22;38238;53.304;6.606;2022-09-23T13:34:32;16.70;99.90
52285;DHT22;38238;53.304;6.606;2022-09-23T13:37:19;16.70;99.90
52285;DHT22;38238;53.304;6.606;2022-09-23T13:39:45;16.70;99.90
52285;DHT22;38238;53.304;6.606;2022-09-23T13:42:37;16.60;99.90
52285;DHT22;38238;53.304;6.606;2022-09-23T13:45:04;15.80;99.90
52285;DHT22;38238;53.304;6.606;2022-09-23T13:47:33;16.50;99.90
52285;DHT22;38238;53.304;6.606;2022-09-23T13:50:00;16.50;99.90
52285;DHT22;38238;53.304;6.606;2022-09-23T13:52:28;16.50;99.90
52285;DHT22;38238;53.304;6.606;2022-09-23T13:54:56;16.50;99.90
52285;DHT22;38238;53.304;6.606;2022-09-23T13:57:25;16.50;99.90
52285;DHT22;38238;53.304;6.606;2022-09-23T13:59:51;16.40;99.90
52285;DHT22;38238;53.304;6.606;2022-09-23T14:02:18;16.40;99.90
52285;DHT22;38238;53.304;6.606;2022-09-23T14:04:44;16.30;99.90
52285;DHT22;38238;53.304;6.606;2022-09-23T14:07:15;16.20;99.90
52285;DHT22;38238;53.304;6.606;2022-09-23T14:09:48;16.20;99.90
52285;DHT22;38238;53.304;6.606;2022-09-23T14:12:14;16.10;99.90
52285;DHT22;38238;53.304;6.606;2022-09-23T14:14:47;16.00;99.90
52285;DHT22;38238;53.304;6.606;2022-09-23T14:17:17;16.00;99.90
52285;DHT22;38238;53.304;6.606;2022-09-23T14:19:43;15.90;99.90
52285;DHT22;38238;53.304;6.606;2022-09-23T14:22:24;15.90;99.90
52285;DHT22;38238;53.304;6.606;2022-09-23T14:24:51;15.80;99.90
52285;DHT22;38238;53.304;6.606;2022-09-23T14:29:49;15.80;99.90
52285;DHT22;38238;53.304;6.606;2022-09-23T14:32:20;15.80;99.90
52285;DHT22;38238;53.304;6.606;2022-09-23T14:40:14;15.70;99.90
52285;DHT22;38238;53.304;6.606;2022-09-23T14:42:49;15.70;99.90
52285;DHT22;38238;53.304;6.606;2022-09-23T14:45:22;15.60;99.90
52285;DHT22;38238;53.304;6.606;2022-09-23T14:47:51;15.60;99.90
52285;DHT22;38238;53.304;6.606;2022-09-23T14:50:26;15.50;99.90
52285;DHT22;38238;53.304;6.606;2022-09-23T14:53:32;15.40;99.90
52285;DHT22;38238;53.304;6.606;2022-09-23T14:58:45;15.30;99.90
52285;DHT22;38238;53.304;6.606;2022-09-23T15:01:24;15.30;99.90
52285;DHT22;38238;53.304;6.606;2022-09-23T15:03:51;15.30;99.90
52285;DHT22;38238;53.304;6.606;2022-09-23T15:06:17;15.30;99.90
52285;DHT22;38238;53.304;6.606;2022-09-23T15:08:44;15.20;99.90
52285;DHT22;38238;53.304;6.606;2022-09-23T15:11:10;15.20;99.90
52285;DHT22;38238;53.304;6.606;2022-09-23T15:13:39;15.10;99.90
52285;DHT22;38238;53.304;6.606;2022-09-23T15:16:05;15.10;99.90
52285;DHT22;38238;53.304;6.606;2022-09-23T15:18:36;15.00;99.90
52285;DHT22;38238;53.304;6.606;2022-09-23T15:21:15;14.90;99.90
52285;DHT22;38238;53.304;6.606;2022-09-23T15:23:50;14.90;99.90
52285;DHT22;38238;53.304;6.606;2022-09-23T15:28:47;14.90;99.90
52285;DHT22;38238;53.304;6.606;2022-09-23T15:31:18;14.80;99.90
52285;DHT22;38238;53.304;6.606;2022-09-23T15:33:48;14.80;99.90
52285;DHT22;38238;53.304;6.606;2022-09-23T15:36:25;14.80;99.90
52285;DHT22;38238;53.304;6.606;2022-09-23T15:38:52;14.80;99.90
52285;DHT22;38238;53.304;6.606;2022-09-23T15:41:18;14.70;99.90
52285;DHT22;38238;53.304;6.606;2022-09-23T15:43:44;14.70;99.90
52285;DHT22;38238;53.304;6.606;2022-09-23T15:46:22;14.60;99.90
52285;DHT22;38238;53.304;6.606;2022-09-23T15:49:02;14.70;99.90
52285;DHT22;38238;53.304;6.606;2022-09-23T15:51:29;14.70;99.90
52285;DHT22;38238;53.304;6.606;2022-09-23T15:53:55;14.70;99.90
52285;DHT22;38238;53.304;6.606;2022-09-23T15:56:23;14.70;99.90
52285;DHT22;38238;53.304;6.606;2022-09-23T15:58:49;14.70;99.90
52285;DHT22;38238;53.304;6.606;2022-09-23T16:01:26;14.70;99.90
52285;DHT22;38238;53.304;6.606;2022-09-23T16:03:53;14.70;99.90
52285;DHT22;38238;53.304;6.606;2022-09-23T16:06:20;14.70;99.90
52285;DHT22;38238;53.304;6.606;2022-09-23T16:08:46;14.70;99.90
52285;DHT22;38238;53.304;6.606;2022-09-23T16:11:18;14.70;99.90
52285;DHT22;38238;53.304;6.606;2022-09-23T16:13:45;14.70;99.90
52285;DHT22;38238;53.304;6.606;2022-09-23T16:16:11;14.70;99.90
52285;DHT22;38238;53.304;6.606;2022-09-23T16:18:37;14.70;99.90
52285;DHT22;38238;53.304;6.606;2022-09-23T16:21:04;14.70;99.90
52285;DHT22;38238;53.304;6.606;2022-09-23T16:23:36;14.60;99.90
52285;DHT22;38238;53.304;6.606;2022-09-23T16:28:44;14.60;99.90
52285;DHT22;38238;53.304;6.606;2022-09-23T16:31:10;14.60;99.90
52285;DHT22;38238;53.304;6.606;2022-09-23T16:33:36;14.60;99.90
52285;DHT22;38238;53.304;6.606;2022-09-23T16:36:03;14.50;99.90
52285;DHT22;38238;53.304;6.606;2022-09-23T16:38:30;14.50;99.90
52285;DHT22;38238;53.304;6.606;2022-09-23T16:40:56;14.50;99.90
52285;DHT22;38238;53.304;6.606;2022-09-23T16:43:25;14.50;99.90
52285;DHT22;38238;53.304;6.606;2022-09-23T16:45:54;14.50;99.90
52285;DHT22;38238;53.304;6.606;2022-09-23T16:48:20;14.50;99.90
52285;DHT22;38238;53.304;6.606;2022-09-23T16:50:46;14.50;99.90
52285;DHT22;38238;53.304;6.606;2022-09-23T16:53:12;14.50;99.90
52285;DHT22;38238;53.304;6.606;2022-09-23T16:55:40;14.40;99.90
52285;DHT22;38238;53.304;6.606;2022-09-23T16:58:06;14.40;99.90
52285;DHT22;38238;53.304;6.606;2022-09-23T17:00:31;14.40;99.90
52285;DHT22;38238;53.304;6.606;2022-09-23T17:03:15;14.40;99.90
52285;DHT22;38238;53.304;6.606;2022-09-23T17:06:00;14.40;99.90
52285;DHT22;38238;53.304;6.606;2022-09-23T17:08:28;14.30;99.90
52285;DHT22;38238;53.304;6.606;2022-09-23T17:10:57;14.40;99.90
52285;DHT22;38238;53.304;6.606;2022-09-23T17:13:25;14.40;99.90
52285;DHT22;38238;53.304;6.606;2022-09-23T17:15:51;14.40;99.90
52285;DHT22;38238;53.304;6.606;2022-09-23T17:18:17;14.30;99.90
52285;DHT22;38238;53.304;6.606;2022-09-23T17:20:54;14.30;99.90
52285;DHT22;38238;53.304;6.606;2022-09-23T17:23:19;14.30;99.90
52285;DHT22;38238;53.304;6.606;2022-09-23T17:25:48;14.30;99.90
52285;DHT22;38238;53.304;6.606;2022-09-23T17:28:14;14.30;99.90
52285;DHT22;38238;53.304;6.606;2022-09-23T17:30:40;14.30;99.90
52285;DHT22;38238;53.304;6.606;2022-09-23T17:33:05;14.30;99.90
52285;DHT22;38238;53.304;6.606;2022-09-23T17:35:31;14.30;99.90
52285;DHT22;38238;53.304;6.606;2022-09-23T17:37:57;14.30;99.90
52285;DHT22;38238;53.304;6.606;2022-09-23T17:40:22;14.30;99.90
52285;DHT22;38238;53.304;6.606;2022-09-23T17:42:50;14.30;99.90
52285;DHT22;38238;53.304;6.606;2022-09-23T17:45:17;14.30;99.90
52285;DHT22;38238;53.304;6.606;2022-09-23T17:47:43;14.30;99.90
52285;DHT22;38238;53.304;6.606;2022-09-23T17:50:19;14.30;99.90
52285;DHT22;38238;53.304;6.606;2022-09-23T17:52:46;14.20;99.90
52285;DHT22;38238;53.304;6.606;2022-09-23T17:55:12;14.20;99.90
52285;DHT22;38238;53.304;6.606;2022-09-23T17:57:38;14.20;99.90
52285;DHT22;38238;53.304;6.606;2022-09-23T18:00:04;14.20;99.90
52285;DHT22;38238;53.304;6.606;2022-09-23T18:02:30;14.20;99.90
52285;DHT22;38238;53.304;6.606;2022-09-23T18:04:56;14.20;99.90
52285;DHT22;38238;53.304;6.606;2022-09-23T18:07:21;14.20;99.90
52285;DHT22;38238;53.304;6.606;2022-09-23T18:09:47;14.10;99.90
52285;DHT22;38238;53.304;6.606;2022-09-23T18:12:13;14.10;99.90
52285;DHT22;38238;53.304;6.606;2022-09-23T18:14:39;14.10;99.90
52285;DHT22;38238;53.304;6.606;2022-09-23T18:17:05;14.20;99.90
52285;DHT22;38238;53.304;6.606;2022-09-23T18:19:31;14.10;99.90
52285;DHT22;38238;53.304;6.606;2022-09-23T18:21:56;14.20;99.90
52285;DHT22;38238;53.304;6.606;2022-09-23T18:24:23;14.10;99.90
52285;DHT22;38238;53.304;6.606;2022-09-23T18:26:49;14.10;99.90
52285;DHT22;38238;53.304;6.606;2022-09-23T18:29:15;14.10;99.90
52285;DHT22;38238;53.304;6.606;2022-09-23T18:31:42;14.10;99.90
52285;DHT22;38238;53.304;6.606;2022-09-23T18:34:14;14.10;99.90
52285;DHT22;38238;53.304;6.606;2022-09-23T18:36:45;14.10;99.90
52285;DHT22;38238;53.304;6.606;2022-09-23T18:39:11;14.10;99.90
52285;DHT22;38238;53.304;6.606;2022-09-23T18:41:36;14.10;99.90
52285;DHT22;38238;53.304;6.606;2022-09-23T18:44:03;14.10;99.90
52285;DHT22;38238;53.304;6.606;2022-09-23T18:46:29;14.10;99.90
52285;DHT22;38238;53.304;6.606;2022-09-23T18:48:56;14.10;99.90